Terminal Aerodrome Forecast
Issued by NWS

Current Version | Previous Version | Text Only | Print | Product List | Glossary On
Versions: 1 2 3 4 5 6 7 8 9 10 11 12 13
000
FTUS46 KMTR 241700
TAFSNS
TAF
KSNS 241720Z 2418/2518 11007KT P6SM SKC
     FM250300 29007KT P6SM FEW250
     FM250600 VRB03KT P6SM FEW250
     FM251000 11008KT P6SM FEW250=

USA.gov is the U.S. government's official web portal to all federal, state and local government web resources and services.